Time;durP1;ratioP1;P1;durP2;ratioP2;P2;SDS_P1;SDS_P2;PMS_P1;PMS_P2;Temp;Humidity;BMP_temperature;BMP_pressure;BME280_temperature;BME280_humidity;BME280_pressure;Samples;Min_cycle;Max_cycle;Signal;HPM_P1;HPM_P2
2023/06/15 00:01:51;;;;;;;5.73;3.20;;;21.40;1.00;;;;;;5053761;28;20181;-81
2023/06/15 00:04:18;;;;;;;10.13;3.37;;;21.30;25.40;;;;;;5055754;28;20184;-83
2023/06/15 00:06:44;;;;;;;4.30;3.13;;;21.30;99.90;;;;;;5060116;28;20218;-81
2023/06/15 00:09:10;;;;;;;5.23;3.10;;;21.20;99.90;;;;;;5076105;28;20180;-83
2023/06/15 00:11:35;;;;;;;3.83;2.83;;;21.30;95.00;;;;;;5072310;28;20177;-80
2023/06/15 00:14:01;;;;;;;5.93;3.13;;;21.20;1.00;;;;;;5042507;28;20700;-83
2023/06/15 00:16:31;;;;;;;4.17;2.93;;;21.10;99.90;;;;;;5040666;28;20620;-83
2023/06/15 00:19:02;;;;;;;4.80;3.03;;;21.10;1.00;;;;;;5059159;28;20169;-83
2023/06/15 00:21:33;;;;;;;5.80;3.03;;;21.10;1.00;;;;;;5058761;28;20189;-81
2023/06/15 00:23:59;;;;;;;5.90;2.87;;;21.10;1.00;;;;;;5039893;28;20183;-83
2023/06/15 00:26:26;;;;;;;6.40;2.87;;;21.10;1.00;;;;;;5057815;28;20174;-83
2023/06/15 00:28:52;;;;;;;5.30;3.33;;;21.10;1.00;;;;;;5040355;28;20217;-83
2023/06/15 00:31:17;;;;;;;5.57;3.33;;;21.10;99.90;;;;;;5056759;28;20180;-84
2023/06/15 00:33:45;;;;;;;7.37;3.00;;;21.10;1.00;;;;;;5055779;28;20967;-84
2023/06/15 00:36:17;;;;;;;7.70;3.17;;;21.00;79.00;;;;;;5056106;28;20263;-84
2023/06/15 00:38:49;;;;;;;7.00;2.80;;;21.00;99.90;;;;;;5056743;28;20246;-83
2023/06/15 00:41:21;;;;;;;5.53;3.17;;;21.00;99.90;;;;;;5056841;28;20168;-83
2023/06/15 00:43:48;;;;;;;8.03;2.90;;;21.00;93.20;;;;;;5038596;28;20186;-81
2023/06/15 00:46:17;;;;;;;4.97;2.87;;;21.00;99.90;;;;;;5056705;28;20157;-83
2023/06/15 00:48:49;;;;;;;5.17;2.93;;;21.00;99.90;;;;;;5056897;28;20637;-83
2023/06/15 00:51:16;;;;;;;5.73;3.00;;;21.00;99.90;;;;;;5056688;28;20198;-83
2023/06/15 00:53:44;;;;;;;6.37;3.53;;;20.90;99.90;;;;;;5056505;28;20177;-83
2023/06/15 00:56:10;;;;;;;4.37;2.87;;;20.90;99.90;;;;;;5055795;28;20173;-83
2023/06/15 00:58:36;;;;;;;5.37;3.17;;;20.80;99.90;;;;;;5056061;28;20257;-82
2023/06/15 01:01:03;;;;;;;6.43;3.33;;;20.80;1.00;;;;;;5036988;28;20169;-82
2023/06/15 01:03:30;;;;;;;7.90;3.50;;;20.80;1.00;;;;;;5070807;28;20149;-80
2023/06/15 01:05:58;;;;;;;6.00;3.57;;;20.80;99.90;;;;;;5071002;28;20270;-82
2023/06/15 01:08:26;;;;;;;9.43;3.30;;;20.80;1.00;;;;;;5060324;28;20208;-83
2023/06/15 01:10:56;;;;;;;7.40;3.93;;;20.70;1.00;;;;;;5056399;28;20627;-82
2023/06/15 01:13:24;;;;;;;10.07;3.90;;;20.70;1.00;;;;;;5055778;28;20509;-82
2023/06/15 01:15:57;;;;;;;4.90;3.17;;;20.60;1.00;;;;;;5054720;28;20179;-83
2023/06/15 01:18:25;;;;;;;9.13;3.13;;;20.70;1.00;;;;;;5037679;28;20223;-82
2023/06/15 01:20:53;;;;;;;5.73;3.23;;;20.70;1.00;;;;;;5055513;28;20223;-83
2023/06/15 01:23:33;;;;;;;6.20;3.47;;;20.60;1.00;;;;;;5055102;28;20256;-82
2023/06/15 01:26:05;;;;;;;5.63;3.03;;;20.60;1.00;;;;;;5055111;28;20172;-83
2023/06/15 01:28:31;;;;;;;7.00;3.33;;;20.60;1.00;;;;;;5055224;28;20203;-82
2023/06/15 01:30:57;;;;;;;7.47;3.40;;;20.60;1.00;;;;;;5037493;28;20235;-82
2023/06/15 01:33:23;;;;;;;6.33;3.50;;;20.60;1.00;;;;;;5055936;28;20180;-83
2023/06/15 01:35:49;;;;;;;5.77;3.57;;;20.60;1.00;;;;;;5054209;28;20537;-83
2023/06/15 01:38:18;;;;;;;6.03;3.20;;;20.70;1.00;;;;;;5054840;28;20191;-83
2023/06/15 01:40:50;;;;;;;6.63;3.60;;;20.70;1.00;;;;;;5054711;28;20529;-83
2023/06/15 01:43:29;;;;;;;7.20;4.03;;;20.60;1.00;;;;;;5054665;28;20640;-83
2023/06/15 01:45:56;;;;;;;4.80;3.23;;;20.50;15.50;;;;;;5055537;28;20193;-82
2023/06/15 01:48:22;;;;;;;5.37;3.50;;;20.40;56.80;;;;;;5054769;28;20213;-84
2023/06/15 01:50:49;;;;;;;7.70;3.57;;;20.40;94.10;;;;;;5054265;28;20173;-82
2023/06/15 01:53:15;;;;;;;8.20;3.67;;;20.30;99.90;;;;;;5054882;28;20167;-83
2023/06/15 01:55:40;;;;;;;4.87;3.27;;;20.20;99.90;;;;;;5054558;28;20171;-83
2023/06/15 01:58:06;;;;;;;7.70;3.77;;;20.20;99.90;;;;;;5037093;28;20175;-81
2023/06/15 02:00:33;;;;;;;7.73;3.33;;;20.20;99.90;;;;;;5054278;28;20225;-81
2023/06/15 02:02:59;;;;;;;5.73;3.90;;;20.20;99.90;;;;;;5054374;28;20168;-81
2023/06/15 02:05:25;;;;;;;6.83;3.50;;;20.20;99.90;;;;;;5036061;28;20646;-79
2023/06/15 02:07:50;;;;;;;5.53;3.57;;;20.30;99.90;;;;;;5035190;28;20278;-80
2023/06/15 02:10:18;;;;;;;5.13;3.27;;;20.30;99.90;;;;;;5053948;28;20195;-81
2023/06/15 02:12:44;;;;;;;6.13;3.47;;;20.20;99.90;;;;;;5052965;28;20232;-83
2023/06/15 02:15:10;;;;;;;4.83;3.50;;;20.20;99.90;;;;;;5053969;28;20545;-80
2023/06/15 02:17:39;;;;;;;7.10;3.50;;;20.20;99.90;;;;;;5054704;28;20215;-82
2023/06/15 02:20:08;;;;;;;6.30;3.13;;;20.20;99.90;;;;;;5036080;28;20182;-81
2023/06/15 02:22:33;;;;;;;6.37;3.40;;;20.20;90.70;;;;;;5054555;28;20251;-83
2023/06/15 02:24:59;;;;;;;5.87;3.70;;;20.20;99.90;;;;;;5054339;28;20642;-80
2023/06/15 02:27:25;;;;;;;4.90;3.50;;;20.10;99.90;;;;;;5053680;28;20167;-82
2023/06/15 02:29:51;;;;;;;7.47;3.50;;;20.00;99.90;;;;;;5053306;28;20276;-81
2023/06/15 02:32:29;;;;;;;6.47;3.83;;;20.00;99.90;;;;;;5052844;28;20159;-81
2023/06/15 02:34:56;;;;;;;5.30;3.70;;;20.00;99.90;;;;;;5034645;28;20192;-83
2023/06/15 02:37:21;;;;;;;6.17;3.60;;;20.00;99.90;;;;;;5054238;28;20200;-82
2023/06/15 02:39:47;;;;;;;7.30;3.83;;;19.90;99.90;;;;;;5036011;28;20185;-78
2023/06/15 02:42:13;;;;;;;6.50;3.50;;;19.80;99.90;;;;;;5036423;28;20636;-81
2023/06/15 02:44:38;;;;;;;4.70;3.57;;;19.80;99.90;;;;;;5054202;28;20172;-80
2023/06/15 02:47:05;;;;;;;6.33;3.60;;;19.90;99.90;;;;;;5035769;28;20238;-80
2023/06/15 02:49:30;;;;;;;4.90;3.40;;;19.80;99.90;;;;;;5069720;28;20232;-80
2023/06/15 02:51:56;;;;;;;4.53;3.37;;;19.90;99.90;;;;;;5070965;28;20179;-84
2023/06/15 02:54:23;;;;;;;6.43;3.27;;;19.70;99.90;;;;;;5056445;28;20168;-80
2023/06/15 02:56:51;;;;;;;5.83;3.70;;;19.60;99.90;;;;;;5055065;28;20227;-82
2023/06/15 02:59:25;;;;;;;6.53;3.73;;;19.70;99.90;;;;;;5053844;28;20255;-82
2023/06/15 03:01:52;;;;;;;7.57;3.63;;;19.60;99.90;;;;;;5053356;28;20156;-82
2023/06/15 03:04:21;;;;;;;11.80;4.50;;;19.60;99.90;;;;;;5068436;28;20180;-83
2023/06/15 03:06:51;;;;;;;6.27;3.63;;;19.50;99.90;;;;;;5052636;28;20168;-83
2023/06/15 03:09:17;;;;;;;8.30;4.20;;;19.50;99.90;;;;;;5053161;28;20226;-81
2023/06/15 03:11:44;;;;;;;5.70;3.83;;;19.50;99.90;;;;;;5063745;28;20158;-77
2023/06/15 03:14:13;;;;;;;9.20;3.87;;;19.40;99.90;;;;;;5075191;28;20205;-78
2023/06/15 03:16:39;;;;;;;7.47;3.60;;;19.40;99.90;;;;;;5069864;28;20250;-77
2023/06/15 03:19:05;;;;;;;7.60;3.80;;;19.40;99.90;;;;;;5069953;28;20159;-79
2023/06/15 03:21:34;;;;;;;8.97;3.80;;;19.30;99.90;;;;;;5068765;28;20197;-82
2023/06/15 03:24:16;;;;;;;5.03;3.60;;;19.40;99.90;;;;;;5069581;28;20171;-78
2023/06/15 03:26:43;;;;;;;7.60;4.13;;;19.40;99.90;;;;;;5039107;28;20664;-80
2023/06/15 03:29:13;;;;;;;5.43;4.07;;;19.40;99.90;;;;;;5036343;28;20213;-82
2023/06/15 03:31:42;;;;;;;6.33;4.27;;;19.40;99.90;;;;;;5035899;28;20174;-81
2023/06/15 03:34:09;;;;;;;6.43;3.73;;;19.40;99.90;;;;;;5035575;28;20170;-80
2023/06/15 03:36:35;;;;;;;6.93;4.17;;;19.30;99.90;;;;;;5052976;28;20266;-80
2023/06/15 03:39:04;;;;;;;6.43;3.67;;;19.30;99.90;;;;;;5037191;28;20218;-83
2023/06/15 03:41:34;;;;;;;13.20;4.10;;;19.30;99.90;;;;;;5056232;28;20625;-80
2023/06/15 03:44:00;;;;;;;5.87;4.07;;;19.20;99.90;;;;;;5057143;28;20533;-81
2023/06/15 03:46:25;;;;;;;6.37;4.27;;;19.20;99.90;;;;;;5055555;28;20167;-79
2023/06/15 03:48:51;;;;;;;6.90;4.30;;;19.20;99.90;;;;;;5056421;28;20212;-81
2023/06/15 03:51:17;;;;;;;6.97;3.70;;;19.20;99.90;;;;;;5057240;28;20178;-84
2023/06/15 03:53:43;;;;;;;5.57;3.80;;;19.20;99.90;;;;;;5056682;28;20633;-83
2023/06/15 03:56:09;;;;;;;5.87;3.90;;;19.20;99.90;;;;;;5057230;28;20162;-81
2023/06/15 03:58:35;;;;;;;6.13;3.83;;;19.30;99.90;;;;;;5039196;28;20201;-81
2023/06/15 04:01:04;;;;;;;9.73;4.23;;;19.30;99.90;;;;;;5056266;28;20165;-82
2023/06/15 04:03:34;;;;;;;5.60;3.70;;;19.30;99.90;;;;;;5056316;28;20246;-82
2023/06/15 04:06:02;;;;;;;6.80;3.63;;;19.40;99.90;;;;;;5056638;28;20616;-84
2023/06/15 04:08:28;;;;;;;9.30;4.13;;;19.50;99.90;;;;;;5039086;28;20685;-81
2023/06/15 04:10:56;;;;;;;6.27;3.80;;;19.60;99.90;;;;;;5039717;28;20178;-80
2023/06/15 04:13:23;;;;;;;7.57;3.97;;;19.70;99.90;;;;;;5039888;28;20530;-81
2023/06/15 04:15:50;;;;;;;6.07;3.50;;;19.70;99.90;;;;;;5056968;28;20168;-81
2023/06/15 04:18:16;;;;;;;4.83;3.60;;;19.60;99.90;;;;;;5057348;28;20171;-78
2023/06/15 04:20:42;;;;;;;7.97;4.00;;;19.60;99.90;;;;;;5058289;28;20181;-82
2023/06/15 04:23:07;;;;;;;5.90;3.50;;;19.70;99.90;;;;;;5059619;28;20178;-79
2023/06/15 04:25:35;;;;;;;6.90;3.90;;;19.70;99.90;;;;;;5061738;28;20258;-80
2023/06/15 04:28:02;;;;;;;9.00;3.70;;;19.70;99.90;;;;;;5059408;28;20197;-81
2023/06/15 04:30:29;;;;;;;8.73;3.53;;;19.70;99.90;;;;;;5059886;28;20204;-82
2023/06/15 04:32:59;;;;;;;5.43;3.30;;;19.80;99.90;;;;;;5058702;28;20196;-82
2023/06/15 04:35:31;;;;;;;7.00;3.70;;;19.80;99.90;;;;;;5062230;28;20172;-82
2023/06/15 04:38:02;;;;;;;5.83;3.93;;;19.90;99.90;;;;;;5061848;28;20189;-81
2023/06/15 04:40:28;;;;;;;6.43;3.83;;;19.90;99.90;;;;;;5044666;28;20202;-83
2023/06/15 04:42:54;;;;;;;6.77;3.70;;;20.10;99.90;;;;;;5063248;28;20646;-82
2023/06/15 04:45:20;;;;;;;8.73;3.87;;;20.10;99.90;;;;;;5063071;28;20246;-82
2023/06/15 04:47:47;;;;;;;6.67;3.83;;;20.10;99.90;;;;;;5063140;28;20168;-82
2023/06/15 04:50:13;;;;;;;5.83;3.67;;;20.20;99.90;;;;;;5067492;28;20173;-84
2023/06/15 04:52:40;;;;;;;14.30;5.10;;;20.30;99.90;;;;;;5067223;28;20189;-83
2023/06/15 04:55:07;;;;;;;6.73;4.53;;;20.40;94.20;;;;;;5066601;28;20252;-82
2023/06/15 04:57:33;;;;;;;6.60;3.63;;;20.40;99.90;;;;;;5071315;28;20223;-81
2023/06/15 05:00:00;;;;;;;6.67;4.10;;;20.50;76.20;;;;;;5067278;28;20160;-82
2023/06/15 05:02:25;;;;;;;6.83;3.70;;;20.50;86.90;;;;;;5058711;28;20302;-80
2023/06/15 05:04:52;;;;;;;8.40;4.10;;;20.40;30.80;;;;;;5057952;28;20184;-82
2023/06/15 05:07:17;;;;;;;11.03;3.70;;;20.30;61.50;;;;;;5038166;28;20670;-81
2023/06/15 05:09:45;;;;;;;7.30;3.57;;;20.30;89.50;;;;;;5055266;28;20199;-81
2023/06/15 05:12:11;;;;;;;6.47;3.40;;;20.50;16.20;;;;;;5056475;28;20189;-82
2023/06/15 05:14:37;;;;;;;5.17;3.40;;;20.40;9.70;;;;;;5055148;28;20667;-80
2023/06/15 05:17:05;;;;;;;8.23;3.80;;;20.40;65.80;;;;;;5037271;28;20536;-80
2023/06/15 05:19:31;;;;;;;6.20;3.87;;;20.30;26.00;;;;;;5055599;28;20233;-80
2023/06/15 05:22:02;;;;;;;6.93;3.60;;;20.20;99.90;;;;;;5056128;28;20156;-79
2023/06/15 05:24:28;;;;;;;5.97;3.90;;;20.20;99.90;;;;;;5055878;28;20168;-82
2023/06/15 05:26:56;;;;;;;10.60;3.90;;;20.20;99.90;;;;;;5055350;28;20172;-83
2023/06/15 05:29:22;;;;;;;4.87;3.37;;;20.30;97.60;;;;;;5037337;28;20210;-83
2023/06/15 05:31:48;;;;;;;8.13;3.97;;;20.40;16.10;;;;;;5055253;28;20245;-78
2023/06/15 05:34:13;;;;;;;7.93;3.37;;;20.40;47.60;;;;;;5053847;28;20173;-72
2023/06/15 05:36:39;;;;;;;6.03;3.40;;;20.80;99.90;;;;;;5053842;28;20669;-73
2023/06/15 05:39:06;;;;;;;7.97;3.97;;;20.90;1.00;;;;;;5053788;28;20208;-72
2023/06/15 05:41:32;;;;;;;8.90;3.50;;;21.20;1.00;;;;;;5053874;28;20245;-72
2023/06/15 05:43:59;;;;;;;5.80;3.33;;;21.50;1.00;;;;;;5053134;28;20764;-74
2023/06/15 05:46:25;;;;;;;7.47;3.30;;;21.60;99.90;;;;;;5051900;28;20225;-72
2023/06/15 05:48:51;;;;;;;9.83;3.23;;;21.70;99.90;;;;;;5034614;28;20278;-74
2023/06/15 05:51:16;;;;;;;8.67;3.07;;;21.80;1.00;;;;;;5051195;28;20657;-73
2023/06/15 05:53:42;;;;;;;8.73;3.57;;;22.00;87.50;;;;;;5051851;28;20257;-73
2023/06/15 05:56:08;;;;;;;10.57;3.40;;;22.10;1.00;;;;;;5053264;28;20658;-72
2023/06/15 05:58:34;;;;;;;5.77;3.27;;;22.10;1.00;;;;;;5052346;28;20264;-72
2023/06/15 06:01:00;;;;;;;9.60;3.60;;;22.40;1.00;;;;;;5051927;28;20179;-70
2023/06/15 06:03:26;;;;;;;8.97;3.47;;;22.60;1.00;;;;;;5053053;28;20197;-72
2023/06/15 06:05:51;;;;;;;7.23;3.40;;;22.70;93.90;;;;;;5051658;28;20170;-74
2023/06/15 06:08:18;;;;;;;10.77;4.37;;;22.80;1.00;;;;;;5052899;28;20267;-76
2023/06/15 06:10:44;;;;;;;9.47;4.00;;;22.90;99.90;;;;;;5052822;28;20190;-77
2023/06/15 06:13:10;;;;;;;13.43;4.20;;;22.90;99.90;;;;;;5052400;28;20531;-75
2023/06/15 06:15:36;;;;;;;10.17;3.33;;;23.00;99.90;;;;;;5052478;28;20197;-77
2023/06/15 06:18:04;;;;;;;8.07;3.57;;;22.90;99.90;;;;;;5053058;28;20221;-77
2023/06/15 06:20:33;;;;;;;9.93;3.87;;;22.60;99.90;;;;;;5053268;28;20576;-76
2023/06/15 06:22:59;;;;;;;7.80;3.53;;;22.40;1.00;;;;;;5053197;28;20219;-76
2023/06/15 06:25:24;;;;;;;5.80;3.10;;;22.30;1.00;;;;;;5052609;28;20206;-76
2023/06/15 06:27:51;;;;;;;7.00;3.40;;;22.40;1.00;;;;;;5053108;28;20198;-84
2023/06/15 06:30:17;;;;;;;10.30;4.23;;;22.40;1.00;;;;;;5054558;28;20317;-77
2023/06/15 06:32:43;;;;;;;7.03;3.60;;;22.40;8.10;;;;;;5062031;28;20203;-75
2023/06/15 06:35:09;;;;;;;10.30;3.30;;;22.40;99.90;;;;;;5072648;28;20173;-83
2023/06/15 06:37:34;;;;;;;10.90;3.07;;;22.30;99.90;;;;;;5073399;28;20629;-81
2023/06/15 06:40:03;;;;;;;5.10;2.93;;;22.30;99.90;;;;;;5067884;28;20172;-88
2023/06/15 06:42:31;;;;;;;6.17;3.30;;;22.10;99.90;;;;;;5057070;28;20163;-83
2023/06/15 06:44:59;;;;;;;4.60;2.77;;;22.20;1.00;;;;;;5056804;28;20224;-84
2023/06/15 06:47:25;;;;;;;5.17;2.90;;;22.20;1.00;;;;;;5055942;28;20150;-83
2023/06/15 06:49:52;;;;;;;3.80;2.50;;;22.20;1.00;;;;;;5055427;28;20199;-82
2023/06/15 06:52:18;;;;;;;5.60;2.63;;;22.20;15.50;;;;;;5056321;28;20645;-86
2023/06/15 06:54:43;;;;;;;9.77;3.37;;;22.20;1.00;;;;;;5058045;28;20193;-83
2023/06/15 06:57:11;;;;;;;5.80;2.80;;;22.40;99.90;;;;;;5023971;28;20178;-85
2023/06/15 06:59:36;;;;;;;8.87;3.10;;;22.60;99.90;;;;;;5059072;28;20171;-84
2023/06/15 07:02:03;;;;;;;4.70;2.93;;;22.60;1.00;;;;;;5075134;28;20163;-80
2023/06/15 07:04:29;;;;;;;7.73;3.27;;;22.70;1.00;;;;;;5077197;28;20152;-83
2023/06/15 07:06:55;;;;;;;7.20;3.43;;;22.60;99.90;;;;;;5075811;28;20183;-84
2023/06/15 07:09:32;;;;;;;5.33;3.07;;;22.50;99.90;;;;;;5067299;28;20669;-84
2023/06/15 07:12:01;;;;;;;5.43;2.73;;;22.40;97.30;;;;;;5063936;28;20179;-86
2023/06/15 07:17:51;;;;;;;5.00;2.87;;;22.20;1.00;;;;;;5070756;28;20255;-87
2023/06/15 07:20:17;;;;;;;6.97;2.77;;;22.30;99.90;;;;;;5067786;28;20225;-86
2023/06/15 07:22:43;;;;;;;8.33;2.93;;;22.40;1.00;;;;;;5072094;28;20175;-84
2023/06/15 07:25:14;;;;;;;8.80;2.90;;;22.40;1.00;;;;;;5068102;28;20268;-86
2023/06/15 07:27:40;;;;;;;19.27;3.57;;;22.30;99.90;;;;;;5051341;28;20175;-86
2023/06/15 07:30:06;;;;;;;17.97;4.60;;;22.20;1.00;;;;;;5065845;28;20208;-86
2023/06/15 07:32:32;;;;;;;6.10;2.93;;;22.20;99.90;;;;;;5065573;28;20162;-86
2023/06/15 07:34:57;;;;;;;5.90;3.17;;;22.20;1.00;;;;;;5064121;28;20545;-83
2023/06/15 07:37:23;;;;;;;5.03;2.90;;;22.30;1.00;;;;;;5062456;28;20226;-79
2023/06/15 07:39:49;;;;;;;4.90;3.00;;;22.40;1.00;;;;;;5061429;28;20166;-82
2023/06/15 07:42:14;;;;;;;5.03;2.90;;;22.60;99.90;;;;;;5062451;28;20168;-82
2023/06/15 07:44:40;;;;;;;3.50;2.70;;;22.80;99.90;;;;;;5057844;28;20165;-79
2023/06/15 07:47:10;;;;;;;6.23;2.63;;;22.90;1.00;;;;;;5058837;28;20152;-84
2023/06/15 07:49:36;;;;;;;5.23;2.90;;;23.10;3.70;;;;;;5057898;28;20211;-80
2023/06/15 07:52:02;;;;;;;8.37;3.50;;;23.30;42.10;;;;;;5060975;28;20230;-82
2023/06/15 07:54:27;;;;;;;4.97;3.10;;;23.50;99.90;;;;;;5059095;28;20722;-81
2023/06/15 07:56:53;;;;;;;3.97;2.63;;;23.70;1.00;;;;;;5056957;28;20165;-78
2023/06/15 07:59:19;;;;;;;10.93;3.37;;;23.70;99.90;;;;;;5058731;28;20168;-83
2023/06/15 08:01:44;;;;;;;7.07;3.70;;;23.90;1.00;;;;;;5059103;28;20207;-86
2023/06/15 08:04:11;;;;;;;6.50;3.07;;;23.80;1.00;;;;;;5059677;28;20251;-85
2023/06/15 08:06:37;;;;;;;7.90;3.23;;;23.60;99.90;;;;;;5058206;28;20665;-84
2023/06/15 08:09:02;;;;;;;5.13;2.80;;;23.50;99.90;;;;;;5058643;28;20236;-85
2023/06/15 08:11:28;;;;;;;5.63;3.40;;;23.60;1.00;;;;;;5057753;28;20575;-84
2023/06/15 08:13:54;;;;;;;6.23;2.90;;;23.80;99.90;;;;;;5060315;28;20176;-82
2023/06/15 08:16:20;;;;;;;4.40;2.67;;;23.90;1.00;;;;;;5065758;28;20168;-86
2023/06/15 08:18:46;;;;;;;4.93;2.90;;;23.80;1.00;;;;;;5065338;28;20246;-88
2023/06/15 08:21:13;;;;;;;8.03;2.80;;;23.80;1.00;;;;;;5048032;28;20180;-82
2023/06/15 08:23:44;;;;;;;3.83;2.60;;;23.80;99.90;;;;;;5048605;28;20227;-86
2023/06/15 08:26:10;;;;;;;7.00;3.20;;;23.80;1.00;;;;;;5065616;28;20248;-85
2023/06/15 08:28:35;;;;;;;13.70;3.60;;;23.70;99.90;;;;;;5043056;28;20633;-80
2023/06/15 08:31:03;;;;;;;6.20;3.00;;;23.40;1.00;;;;;;5040153;28;20171;-81
2023/06/15 08:33:29;;;;;;;5.63;2.80;;;23.20;1.00;;;;;;5057846;28;20178;-82
2023/06/15 08:35:56;;;;;;;4.77;3.00;;;23.30;1.00;;;;;;5040438;28;20709;-83
2023/06/15 08:38:21;;;;;;;7.40;3.03;;;23.60;76.30;;;;;;5056478;28;20219;-81
2023/06/15 08:40:47;;;;;;;14.53;3.73;;;23.70;99.90;;;;;;5057017;28;20173;-83
2023/06/15 08:43:16;;;;;;;4.03;2.80;;;23.70;99.90;;;;;;5039169;28;20197;-82
2023/06/15 08:45:43;;;;;;;7.33;3.60;;;23.70;99.90;;;;;;5057399;28;20558;-83
2023/06/15 08:48:14;;;;;;;4.50;3.03;;;23.70;99.90;;;;;;5066909;28;20172;-83
2023/06/15 08:50:46;;;;;;;6.07;3.27;;;23.70;99.90;;;;;;5060049;28;20567;-80
2023/06/15 08:53:20;;;;;;;4.07;3.10;;;23.50;1.00;;;;;;5060262;28;20153;-84
2023/06/15 08:56:31;;;;;;;6.80;3.20;;;23.60;58.00;;;;;;5056786;28;20189;-83
2023/06/15 08:58:57;;;;;;;4.10;3.20;;;23.80;99.90;;;;;;5056923;28;20184;-84
2023/06/15 09:01:25;;;;;;;5.00;2.87;;;23.80;1.00;;;;;;5056984;28;20163;-84
2023/06/15 09:03:54;;;;;;;7.23;3.00;;;24.00;99.90;;;;;;5037757;28;20183;-84
2023/06/15 09:06:21;;;;;;;9.33;3.47;;;24.30;1.00;;;;;;5056291;28;20192;-82
2023/06/15 09:08:48;;;;;;;7.60;3.40;;;24.50;1.00;;;;;;5055958;28;20287;-82
2023/06/15 09:11:14;;;;;;;5.17;2.97;;;24.50;99.90;;;;;;5056051;28;20242;-83
2023/06/15 09:13:41;;;;;;;4.60;2.70;;;24.30;1.00;;;;;;5055478;28;20174;-81
2023/06/15 09:16:08;;;;;;;5.20;2.90;;;24.20;93.80;;;;;;5038560;28;20641;-83
2023/06/15 09:18:51;;;;;;;5.53;3.00;;;24.20;99.90;;;;;;5055899;28;20169;-83
2023/06/15 09:21:18;;;;;;;5.87;3.47;;;24.40;99.90;;;;;;5054985;28;20199;-81
2023/06/15 09:23:46;;;;;;;9.43;3.97;;;24.40;26.20;;;;;;5055934;28;20169;-82
2023/06/15 09:26:27;;;;;;;7.20;4.00;;;24.40;1.00;;;;;;5056469;28;20176;-82
2023/06/15 09:28:57;;;;;;;10.03;3.30;;;24.20;1.00;;;;;;5025138;28;20216;-83
2023/06/15 09:31:32;;;;;;;4.37;3.23;;;24.20;1.00;;;;;;5061773;28;20237;-83
2023/06/15 09:34:06;;;;;;;5.87;2.97;;;24.30;1.00;;;;;;5067676;28;20184;-82
2023/06/15 09:36:44;;;;;;;4.93;3.23;;;24.40;1.00;;;;;;5057396;28;20200;-81
2023/06/15 09:39:22;;;;;;;4.30;2.70;;;24.60;1.00;;;;;;5056606;28;20185;-84
2023/06/15 09:42:01;;;;;;;6.20;3.30;;;24.70;99.90;;;;;;5056233;28;20241;-83
2023/06/15 09:44:27;;;;;;;9.13;3.40;;;24.70;99.90;;;;;;5057846;28;20705;-81
2023/06/15 09:47:01;;;;;;;7.93;3.27;;;24.50;99.90;;;;;;5042587;28;20184;-84
2023/06/15 09:49:28;;;;;;;3.27;2.60;;;24.70;1.00;;;;;;5061865;28;20226;-83
2023/06/15 09:51:55;;;;;;;4.17;2.63;;;24.70;1.00;;;;;;5049101;28;20165;-80
2023/06/15 09:54:23;;;;;;;3.47;2.43;;;24.90;1.00;;;;;;5074539;28;20177;-82
2023/06/15 09:56:51;;;;;;;4.93;2.70;;;25.20;99.90;;;;;;5071281;28;20256;-84
2023/06/15 09:59:18;;;;;;;5.70;2.63;;;25.20;99.90;;;;;;5062926;28;20180;-84
2023/06/15 10:01:49;;;;;;;8.60;2.97;;;25.00;99.90;;;;;;5040602;28;20721;-83
2023/06/15 10:04:19;;;;;;;6.10;2.50;;;24.80;99.90;;;;;;5022741;28;20192;-81
2023/06/15 10:06:50;;;;;;;7.47;3.10;;;24.60;99.90;;;;;;5056504;28;20171;-83
2023/06/15 10:09:28;;;;;;;4.53;2.80;;;24.80;99.90;;;;;;5023491;28;20358;-83
2023/06/15 10:12:01;;;;;;;5.90;2.80;;;24.90;23.90;;;;;;5057074;28;20275;-84
2023/06/15 10:14:38;;;;;;;5.17;2.43;;;25.00;1.00;;;;;;5056411;28;20671;-84
2023/06/15 10:17:06;;;;;;;5.87;2.60;;;25.40;1.00;;;;;;5058470;28;20224;-81
2023/06/15 10:19:38;;;;;;;3.50;2.37;;;25.60;1.00;;;;;;5056798;28;20268;-84
2023/06/15 10:22:08;;;;;;;5.63;2.83;;;25.70;1.00;;;;;;5057781;28;20207;-84
2023/06/15 10:24:35;;;;;;;6.20;2.90;;;25.80;99.90;;;;;;5056351;28;20161;-81
2023/06/15 10:27:01;;;;;;;7.30;2.90;;;25.40;99.90;;;;;;5054339;28;20188;-84
2023/06/15 10:29:47;;;;;;;4.30;2.70;;;25.70;99.90;;;;;;5053449;28;20246;-83
2023/06/15 10:32:19;;;;;;;7.37;2.90;;;25.50;99.90;;;;;;5052460;28;20184;-79
2023/06/15 10:34:45;;;;;;;9.13;3.07;;;25.60;99.90;;;;;;5053696;28;20595;-79
2023/06/15 10:37:17;;;;;;;6.43;2.60;;;26.00;99.90;;;;;;5053861;28;20243;-78
2023/06/15 10:39:48;;;;;;;3.80;2.60;;;26.10;99.90;;;;;;5052074;28;20251;-77
2023/06/15 10:42:14;;;;;;;6.03;3.07;;;26.10;99.90;;;;;;5041074;28;20173;-79
2023/06/15 10:44:40;;;;;;;4.67;2.70;;;26.30;99.90;;;;;;5057845;28;20165;-78
2023/06/15 10:47:08;;;;;;;5.33;2.73;;;26.10;57.20;;;;;;5057983;28;20284;-75
2023/06/15 10:49:34;;;;;;;6.33;3.70;;;26.00;20.50;;;;;;5036971;28;20275;-80
2023/06/15 10:52:03;;;;;;;4.67;2.70;;;26.30;15.00;;;;;;5062647;28;20613;-77
2023/06/15 10:54:29;;;;;;;4.57;2.80;;;26.30;1.00;;;;;;5059072;28;20177;-76
2023/06/15 10:56:57;;;;;;;6.60;2.67;;;26.50;1.00;;;;;;5053257;28;20684;-77
2023/06/15 10:59:45;;;;;;;4.70;2.80;;;26.70;1.00;;;;;;5055081;28;20551;-76
2023/06/15 11:02:31;;;;;;;5.43;2.80;;;26.60;1.00;;;;;;5054186;28;20188;-74
2023/06/15 11:05:10;;;;;;;6.97;3.17;;;26.40;1.00;;;;;;5052426;28;20165;-74
2023/06/15 11:07:37;;;;;;;8.40;3.33;;;26.50;1.00;;;;;;5052629;28;20192;-75
2023/06/15 11:10:13;;;;;;;23.53;3.90;;;26.80;1.00;;;;;;5051929;28;20224;-76
2023/06/15 11:12:44;;;;;;;3.00;2.63;;;26.80;1.00;;;;;;5052258;28;20165;-74
2023/06/15 11:15:13;;;;;;;4.97;2.67;;;26.40;1.00;;;;;;5052613;28;20169;-75
2023/06/15 11:17:55;;;;;;;4.80;2.47;;;26.30;1.00;;;;;;5052123;28;20196;-76
2023/06/15 11:20:38;;;;;;;6.73;2.73;;;26.20;1.00;;;;;;5051629;28;20634;-77
2023/06/15 11:23:11;;;;;;;13.77;3.40;;;26.50;1.00;;;;;;5052075;28;20209;-74
2023/06/15 11:25:51;;;;;;;5.33;2.87;;;26.30;1.00;;;;;;5052067;28;20161;-74
2023/06/15 11:28:22;;;;;;;7.70;2.97;;;26.20;1.00;;;;;;5052347;28;20242;-75
2023/06/15 11:30:51;;;;;;;5.90;3.37;;;26.30;1.00;;;;;;5052028;28;20165;-74
2023/06/15 11:33:27;;;;;;;4.90;2.70;;;26.10;1.00;;;;;;5051345;28;20717;-79
2023/06/15 11:35:53;;;;;;;6.20;2.70;;;26.10;1.00;;;;;;5053565;28;20175;-81
2023/06/15 11:38:25;;;;;;;5.83;2.97;;;26.00;1.00;;;;;;5035491;28;20202;-80
2023/06/15 11:40:51;;;;;;;5.53;3.13;;;26.10;1.00;;;;;;5053867;28;20259;-80
2023/06/15 11:43:23;;;;;;;6.47;2.87;;;26.00;1.00;;;;;;5053658;28;20222;-81
2023/06/15 11:45:50;;;;;;;8.40;2.90;;;25.80;1.00;;;;;;5053640;28;20234;-80
2023/06/15 11:48:15;;;;;;;7.43;3.23;;;26.00;1.00;;;;;;5034984;28;20177;-80
2023/06/15 11:50:43;;;;;;;7.90;2.93;;;26.10;1.00;;;;;;5053164;28;20168;-81
2023/06/15 11:53:19;;;;;;;5.80;2.80;;;26.30;1.00;;;;;;5054109;28;20180;-80
2023/06/15 11:55:48;;;;;;;4.90;3.00;;;26.50;1.00;;;;;;5036163;28;20213;-80
2023/06/15 11:58:15;;;;;;;5.73;3.00;;;26.30;1.00;;;;;;5053735;28;20180;-83
2023/06/15 12:00:41;;;;;;;4.93;2.73;;;26.30;1.00;;;;;;5039510;28;20630;-81
2023/06/15 12:03:12;;;;;;;4.23;2.70;;;26.50;1.00;;;;;;5039778;28;20223;-82
2023/06/15 12:05:39;;;;;;;5.47;2.83;;;26.60;1.00;;;;;;5057673;28;20177;-82
2023/06/15 12:08:06;;;;;;;4.93;3.00;;;26.50;1.00;;;;;;5056945;28;20201;-83
2023/06/15 12:10:37;;;;;;;6.27;3.30;;;26.50;1.00;;;;;;5057377;28;20173;-83
2023/06/15 12:13:09;;;;;;;5.97;3.17;;;26.40;1.00;;;;;;5037580;28;20173;-82
2023/06/15 12:15:39;;;;;;;7.67;3.23;;;26.60;1.00;;;;;;5057043;28;20173;-82
2023/06/15 12:18:08;;;;;;;3.97;2.73;;;26.60;99.90;;;;;;5056188;28;20165;-82
2023/06/15 12:20:36;;;;;;;7.50;3.13;;;26.60;99.90;;;;;;5056884;28;20226;-82
2023/06/15 12:23:06;;;;;;;17.87;3.70;;;26.50;99.90;;;;;;5057525;28;20180;-83
2023/06/15 12:25:47;;;;;;;6.00;2.67;;;26.50;99.90;;;;;;5056137;28;20175;-81
2023/06/15 12:28:17;;;;;;;4.43;2.67;;;26.50;99.90;;;;;;5058144;28;20189;-81
2023/06/15 12:30:47;;;;;;;5.37;3.00;;;26.30;99.90;;;;;;5059414;28;20170;-80
2023/06/15 12:33:41;;;;;;;4.63;2.73;;;26.30;99.90;;;;;;5059448;28;20181;-81
2023/06/15 12:36:17;;;;;;;7.77;3.63;;;26.20;99.90;;;;;;5066962;28;20193;-82
2023/06/15 12:38:46;;;;;;;4.63;3.05;;;26.40;99.90;;;;;;5070247;28;20190;-82
2023/06/15 12:41:12;;;;;;;4.30;2.80;;;26.70;99.90;;;;;;5068733;28;20346;-83
2023/06/15 12:43:39;;;;;;;8.83;3.20;;;26.80;99.90;;;;;;5064732;28;20188;-81
2023/06/15 12:46:05;;;;;;;4.83;3.40;;;26.70;99.90;;;;;;5060950;28;20164;-81
2023/06/15 12:48:33;;;;;;;7.20;3.17;;;26.50;99.90;;;;;;5057900;28;20334;-80
2023/06/15 12:51:08;;;;;;;7.78;3.47;;;26.60;99.90;;;;;;5067058;28;20189;-79
2023/06/15 12:53:37;;;;;;;3.80;2.60;;;26.60;99.90;;;;;;5058472;28;20195;-83
2023/06/15 12:56:03;;;;;;;6.60;3.07;;;26.50;99.90;;;;;;5070042;28;20240;-80
2023/06/15 12:58:28;;;;;;;6.57;3.40;;;26.60;99.90;;;;;;5050974;28;20189;-81
2023/06/15 13:00:54;;;;;;;6.33;3.23;;;26.70;99.90;;;;;;5068690;28;20168;-79